sensor_id;sensor_type;location;lat;lon;timestamp;temperature;humidity
21551;DHT22;10936;49.836;7.078;2022-09-27T05:01:39;18.10;99.90
21551;DHT22;10936;49.836;7.078;2022-09-27T05:04:04;18.00;99.90
21551;DHT22;10936;49.836;7.078;2022-09-27T05:06:30;17.90;99.90
21551;DHT22;10936;49.836;7.078;2022-09-27T05:08:56;17.80;99.90
21551;DHT22;10936;49.836;7.078;2022-09-27T05:11:23;17.80;99.90
21551;DHT22;10936;49.836;7.078;2022-09-27T05:13:49;17.80;99.90
21551;DHT22;10936;49.836;7.078;2022-09-27T05:16:15;17.80;99.90
21551;DHT22;10936;49.836;7.078;2022-09-27T05:18:41;17.70;99.90
21551;DHT22;10936;49.836;7.078;2022-09-27T05:21:07;17.70;99.90
21551;DHT22;10936;49.836;7.078;2022-09-27T05:23:33;17.70;99.90
21551;DHT22;10936;49.836;7.078;2022-09-27T05:26:03;17.70;99.90
21551;DHT22;10936;49.836;7.078;2022-09-27T05:28:29;17.60;99.90
21551;DHT22;10936;49.836;7.078;2022-09-27T05:30:55;17.70;99.90
21551;DHT22;10936;49.836;7.078;2022-09-27T05:33:21;17.70;99.90
21551;DHT22;10936;49.836;7.078;2022-09-27T05:35:56;17.60;99.90
21551;DHT22;10936;49.836;7.078;2022-09-27T05:38:23;17.60;99.90
21551;DHT22;10936;49.836;7.078;2022-09-27T05:40:50;17.50;99.90
21551;DHT22;10936;49.836;7.078;2022-09-27T05:43:18;17.50;99.90
21551;DHT22;10936;49.836;7.078;2022-09-27T05:45:46;17.60;99.90
21551;DHT22;10936;49.836;7.078;2022-09-27T05:48:12;17.50;99.90
21551;DHT22;10936;49.836;7.078;2022-09-27T05:50:39;17.50;99.90
21551;DHT22;10936;49.836;7.078;2022-09-27T05:53:05;17.40;99.90
21551;DHT22;10936;49.836;7.078;2022-09-27T05:55:31;17.40;99.90
21551;DHT22;10936;49.836;7.078;2022-09-27T05:58:01;17.40;99.90
21551;DHT22;10936;49.836;7.078;2022-09-27T06:00:28;17.40;99.90
21551;DHT22;10936;49.836;7.078;2022-09-27T06:03:03;17.40;99.90
21551;DHT22;10936;49.836;7.078;2022-09-27T06:05:30;17.30;99.90
21551;DHT22;10936;49.836;7.078;2022-09-27T06:08:02;17.40;99.90
21551;DHT22;10936;49.836;7.078;2022-09-27T06:10:29;17.30;99.90
21551;DHT22;10936;49.836;7.078;2022-09-27T06:13:12;17.40;99.90
21551;DHT22;10936;49.836;7.078;2022-09-27T06:15:40;17.50;99.90
21551;DHT22;10936;49.836;7.078;2022-09-27T06:18:10;17.60;99.90
21551;DHT22;10936;49.836;7.078;2022-09-27T06:20:37;17.70;99.90
21551;DHT22;10936;49.836;7.078;2022-09-27T06:25:34;17.90;99.90
21551;DHT22;10936;49.836;7.078;2022-09-27T06:28:00;18.00;99.90
21551;DHT22;10936;49.836;7.078;2022-09-27T06:30:26;18.00;99.90
21551;DHT22;10936;49.836;7.078;2022-09-27T06:33:01;18.20;99.90
21551;DHT22;10936;49.836;7.078;2022-09-27T06:35:28;18.10;99.90
21551;DHT22;10936;49.836;7.078;2022-09-27T06:37:54;18.20;99.90
21551;DHT22;10936;49.836;7.078;2022-09-27T06:40:20;18.30;99.90
21551;DHT22;10936;49.836;7.078;2022-09-27T06:42:47;18.30;99.90
21551;DHT22;10936;49.836;7.078;2022-09-27T06:45:14;18.40;99.90
21551;DHT22;10936;49.836;7.078;2022-09-27T06:47:40;18.30;99.90
21551;DHT22;10936;49.836;7.078;2022-09-27T06:50:06;18.40;99.90
21551;DHT22;10936;49.836;7.078;2022-09-27T06:52:33;18.40;99.90
21551;DHT22;10936;49.836;7.078;2022-09-27T06:55:00;18.50;99.90
21551;DHT22;10936;49.836;7.078;2022-09-27T06:57:25;18.50;99.90
21551;DHT22;10936;49.836;7.078;2022-09-27T07:00:11;18.50;99.90
21551;DHT22;10936;49.836;7.078;2022-09-27T07:02:49;18.60;99.90
21551;DHT22;10936;49.836;7.078;2022-09-27T07:05:18;18.60;99.90
21551;DHT22;10936;49.836;7.078;2022-09-27T07:07:44;18.60;99.90
21551;DHT22;10936;49.836;7.078;2022-09-27T07:10:10;18.60;99.90
21551;DHT22;10936;49.836;7.078;2022-09-27T07:12:36;18.70;99.90
21551;DHT22;10936;49.836;7.078;2022-09-27T07:15:03;18.70;99.90
21551;DHT22;10936;49.836;7.078;2022-09-27T07:17:29;18.70;99.90
21551;DHT22;10936;49.836;7.078;2022-09-27T07:19:55;18.70;99.90
21551;DHT22;10936;49.836;7.078;2022-09-27T07:22:21;18.70;99.90
21551;DHT22;10936;49.836;7.078;2022-09-27T07:24:47;18.80;99.90
21551;DHT22;10936;49.836;7.078;2022-09-27T07:27:14;18.80;99.90
21551;DHT22;10936;49.836;7.078;2022-09-27T07:29:40;18.80;99.90
21551;DHT22;10936;49.836;7.078;2022-09-27T07:32:05;18.80;99.90
21551;DHT22;10936;49.836;7.078;2022-09-27T07:34:34;18.80;99.90
21551;DHT22;10936;49.836;7.078;2022-09-27T07:37:00;18.80;99.90
21551;DHT22;10936;49.836;7.078;2022-09-27T07:39:28;18.90;99.90
21551;DHT22;10936;49.836;7.078;2022-09-27T07:41:54;18.90;99.90
21551;DHT22;10936;49.836;7.078;2022-09-27T07:44:19;18.90;99.90
21551;DHT22;10936;49.836;7.078;2022-09-27T07:46:45;18.90;99.90
21551;DHT22;10936;49.836;7.078;2022-09-27T07:49:11;19.00;99.90
21551;DHT22;10936;49.836;7.078;2022-09-27T07:51:36;19.00;99.90
21551;DHT22;10936;49.836;7.078;2022-09-27T07:54:02;19.00;99.90
21551;DHT22;10936;49.836;7.078;2022-09-27T07:56:28;19.00;99.90
21551;DHT22;10936;49.836;7.078;2022-09-27T07:58:54;19.00;99.90
21551;DHT22;10936;49.836;7.078;2022-09-27T08:01:20;19.10;99.90
21551;DHT22;10936;49.836;7.078;2022-09-27T08:03:45;19.10;99.90
21551;DHT22;10936;49.836;7.078;2022-09-27T08:06:11;19.10;99.90
21551;DHT22;10936;49.836;7.078;2022-09-27T08:08:38;19.00;99.90
21551;DHT22;10936;49.836;7.078;2022-09-27T08:11:14;19.10;99.90
21551;DHT22;10936;49.836;7.078;2022-09-27T08:13:44;19.10;99.90
21551;DHT22;10936;49.836;7.078;2022-09-27T08:16:10;19.20;99.90
21551;DHT22;10936;49.836;7.078;2022-09-27T08:18:36;19.10;99.90
21551;DHT22;10936;49.836;7.078;2022-09-27T08:21:02;19.20;99.90
21551;DHT22;10936;49.836;7.078;2022-09-27T08:23:29;19.20;99.90
21551;DHT22;10936;49.836;7.078;2022-09-27T08:25:55;19.20;99.90
21551;DHT22;10936;49.836;7.078;2022-09-27T08:28:25;19.20;99.90
21551;DHT22;10936;49.836;7.078;2022-09-27T08:30:51;19.30;99.90
21551;DHT22;10936;49.836;7.078;2022-09-27T08:33:17;19.30;99.90
21551;DHT22;10936;49.836;7.078;2022-09-27T08:35:43;19.30;99.90
21551;DHT22;10936;49.836;7.078;2022-09-27T08:38:09;19.30;99.90
21551;DHT22;10936;49.836;7.078;2022-09-27T08:44:21;19.30;99.90
21551;DHT22;10936;49.836;7.078;2022-09-27T08:49:44;19.30;99.90
21551;DHT22;10936;49.836;7.078;2022-09-27T08:52:19;19.30;99.90
21551;DHT22;10936;49.836;7.078;2022-09-27T08:54:48;19.40;99.90
21551;DHT22;10936;49.836;7.078;2022-09-27T08:57:14;19.40;99.90
21551;DHT22;10936;49.836;7.078;2022-09-27T09:00:00;19.40;99.90
21551;DHT22;10936;49.836;7.078;2022-09-27T09:02:26;19.40;99.90
21551;DHT22;10936;49.836;7.078;2022-09-27T09:05:07;19.30;99.90
21551;DHT22;10936;49.836;7.078;2022-09-27T09:19:09;19.40;99.90
21551;DHT22;10936;49.836;7.078;2022-09-27T09:35:38;19.40;99.90
21551;DHT22;10936;49.836;7.078;2022-09-27T09:38:11;19.40;99.90
21551;DHT22;10936;49.836;7.078;2022-09-27T09:40:48;19.50;99.90
21551;DHT22;10936;49.836;7.078;2022-09-27T09:43:19;19.50;99.90
21551;DHT22;10936;49.836;7.078;2022-09-27T09:45:52;19.40;99.90
21551;DHT22;10936;49.836;7.078;2022-09-27T09:48:40;19.50;99.90
21551;DHT22;10936;49.836;7.078;2022-09-27T09:51:14;19.50;99.90
21551;DHT22;10936;49.836;7.078;2022-09-27T09:58:46;19.50;99.90
21551;DHT22;10936;49.836;7.078;2022-09-27T10:03:50;19.50;99.90
21551;DHT22;10936;49.836;7.078;2022-09-27T10:06:16;19.50;99.90
21551;DHT22;10936;49.836;7.078;2022-09-27T10:08:43;19.50;99.90
21551;DHT22;10936;49.836;7.078;2022-09-27T10:11:35;19.50;99.90
21551;DHT22;10936;49.836;7.078;2022-09-27T10:14:02;19.50;99.90
21551;DHT22;10936;49.836;7.078;2022-09-27T10:16:27;19.50;99.90
21551;DHT22;10936;49.836;7.078;2022-09-27T10:18:58;19.50;99.90
21551;DHT22;10936;49.836;7.078;2022-09-27T10:21:27;19.50;99.90
21551;DHT22;10936;49.836;7.078;2022-09-27T10:24:20;19.60;99.90
21551;DHT22;10936;49.836;7.078;2022-09-27T10:26:47;19.50;99.90
21551;DHT22;10936;49.836;7.078;2022-09-27T10:31:43;19.50;99.90
21551;DHT22;10936;49.836;7.078;2022-09-27T10:34:32;19.60;99.90
21551;DHT22;10936;49.836;7.078;2022-09-27T10:39:28;19.60;99.90
21551;DHT22;10936;49.836;7.078;2022-09-27T10:41:54;19.70;99.90
21551;DHT22;10936;49.836;7.078;2022-09-27T10:44:27;19.60;99.90
21551;DHT22;10936;49.836;7.078;2022-09-27T10:46:55;19.60;99.90
21551;DHT22;10936;49.836;7.078;2022-09-27T10:49:34;19.60;99.90
21551;DHT22;10936;49.836;7.078;2022-09-27T10:52:06;19.60;99.90
21551;DHT22;10936;49.836;7.078;2022-09-27T10:54:35;19.60;99.90
21551;DHT22;10936;49.836;7.078;2022-09-27T10:57:16;19.60;99.90
21551;DHT22;10936;49.836;7.078;2022-09-27T10:59:43;19.60;99.90
21551;DHT22;10936;49.836;7.078;2022-09-27T11:02:29;19.50;99.90
21551;DHT22;10936;49.836;7.078;2022-09-27T11:05:14;19.60;99.90
21551;DHT22;10936;49.836;7.078;2022-09-27T11:07:56;19.60;99.90
21551;DHT22;10936;49.836;7.078;2022-09-27T11:26:40;19.60;99.90
21551;DHT22;10936;49.836;7.078;2022-09-27T11:29:16;19.70;99.90
21551;DHT22;10936;49.836;7.078;2022-09-27T11:34:51;19.70;99.90
21551;DHT22;10936;49.836;7.078;2022-09-27T11:40:11;19.70;99.90
21551;DHT22;10936;49.836;7.078;2022-09-27T11:42:56;19.70;99.90
21551;DHT22;10936;49.836;7.078;2022-09-27T11:51:15;19.70;99.90
21551;DHT22;10936;49.836;7.078;2022-09-27T11:56:35;19.80;99.90
21551;DHT22;10936;49.836;7.078;2022-09-27T12:05:41;19.80;99.90
21551;DHT22;10936;49.836;7.078;2022-09-27T12:13:49;19.80;99.90
21551;DHT22;10936;49.836;7.078;2022-09-27T12:16:18;19.80;99.90
21551;DHT22;10936;49.836;7.078;2022-09-27T12:18:45;19.80;99.90
21551;DHT22;10936;49.836;7.078;2022-09-27T12:21:11;19.80;99.90
21551;DHT22;10936;49.836;7.078;2022-09-27T12:23:46;19.80;99.90
21551;DHT22;10936;49.836;7.078;2022-09-27T12:26:26;19.80;99.90
21551;DHT22;10936;49.836;7.078;2022-09-27T12:32:25;19.80;99.90
21551;DHT22;10936;49.836;7.078;2022-09-27T12:35:31;19.90;99.90
21551;DHT22;10936;49.836;7.078;2022-09-27T12:38:18;19.80;99.90
21551;DHT22;10936;49.836;7.078;2022-09-27T12:40:52;19.80;99.90
21551;DHT22;10936;49.836;7.078;2022-09-27T12:43:21;19.90;99.90
21551;DHT22;10936;49.836;7.078;2022-09-27T12:51:53;19.80;99.90
21551;DHT22;10936;49.836;7.078;2022-09-27T13:10:42;19.80;99.90
21551;DHT22;10936;49.836;7.078;2022-09-27T13:13:13;19.80;99.90
21551;DHT22;10936;49.836;7.078;2022-09-27T13:15:43;19.80;99.90
21551;DHT22;10936;49.836;7.078;2022-09-27T13:21:03;19.80;99.90
21551;DHT22;10936;49.836;7.078;2022-09-27T13:26:20;19.80;99.90
21551;DHT22;10936;49.836;7.078;2022-09-27T13:31:15;19.90;99.90
21551;DHT22;10936;49.836;7.078;2022-09-27T13:33:49;19.80;99.90
21551;DHT22;10936;49.836;7.078;2022-09-27T13:49:45;19.80;99.90
21551;DHT22;10936;49.836;7.078;2022-09-27T13:52:34;19.90;99.90
21551;DHT22;10936;49.836;7.078;2022-09-27T13:58:29;19.90;99.90
21551;DHT22;10936;49.836;7.078;2022-09-27T14:00:59;19.90;99.90
21551;DHT22;10936;49.836;7.078;2022-09-27T14:03:36;19.90;99.90
21551;DHT22;10936;49.836;7.078;2022-09-27T14:06:31;19.90;99.90
21551;DHT22;10936;49.836;7.078;2022-09-27T14:09:05;19.90;99.90
21551;DHT22;10936;49.836;7.078;2022-09-27T14:11:36;19.90;99.90
21551;DHT22;10936;49.836;7.078;2022-09-27T14:14:04;19.90;99.90
21551;DHT22;10936;49.836;7.078;2022-09-27T14:16:34;19.90;99.90
21551;DHT22;10936;49.836;7.078;2022-09-27T14:19:01;19.90;99.90
21551;DHT22;10936;49.836;7.078;2022-09-27T14:21:36;19.90;99.90
21551;DHT22;10936;49.836;7.078;2022-09-27T14:24:32;19.90;99.90
21551;DHT22;10936;49.836;7.078;2022-09-27T14:32:14;20.00;99.90
21551;DHT22;10936;49.836;7.078;2022-09-27T14:34:41;20.00;99.90
21551;DHT22;10936;49.836;7.078;2022-09-27T14:37:18;20.00;99.90
21551;DHT22;10936;49.836;7.078;2022-09-27T14:40:05;20.00;99.90
21551;DHT22;10936;49.836;7.078;2022-09-27T14:42:34;20.10;99.90
21551;DHT22;10936;49.836;7.078;2022-09-27T14:45:32;20.00;99.90
21551;DHT22;10936;49.836;7.078;2022-09-27T14:48:01;20.00;99.90
21551;DHT22;10936;49.836;7.078;2022-09-27T14:50:28;20.00;99.90
21551;DHT22;10936;49.836;7.078;2022-09-27T14:52:55;20.10;99.90
21551;DHT22;10936;49.836;7.078;2022-09-27T14:55:26;20.00;99.90
21551;DHT22;10936;49.836;7.078;2022-09-27T14:57:55;20.00;99.90
21551;DHT22;10936;49.836;7.078;2022-09-27T15:00:26;20.00;99.90
21551;DHT22;10936;49.836;7.078;2022-09-27T15:02:56;20.00;99.90
21551;DHT22;10936;49.836;7.078;2022-09-27T15:05:28;20.00;99.90
21551;DHT22;10936;49.836;7.078;2022-09-27T15:07:58;19.90;99.90
21551;DHT22;10936;49.836;7.078;2022-09-27T15:10:28;19.90;99.90
21551;DHT22;10936;49.836;7.078;2022-09-27T15:12:56;19.90;99.90
21551;DHT22;10936;49.836;7.078;2022-09-27T15:15:27;19.90;99.90
21551;DHT22;10936;49.836;7.078;2022-09-27T15:17:56;19.90;99.90
21551;DHT22;10936;49.836;7.078;2022-09-27T15:20:28;19.90;99.90
21551;DHT22;10936;49.836;7.078;2022-09-27T15:22:58;19.90;99.90
21551;DHT22;10936;49.836;7.078;2022-09-27T15:27:57;19.90;99.90
21551;DHT22;10936;49.836;7.078;2022-09-27T15:30:27;19.90;99.90
21551;DHT22;10936;49.836;7.078;2022-09-27T15:32:54;19.80;99.90
21551;DHT22;10936;49.836;7.078;2022-09-27T15:35:31;19.90;99.90
21551;DHT22;10936;49.836;7.078;2022-09-27T15:43:47;19.80;99.90
21551;DHT22;10936;49.836;7.078;2022-09-27T15:51:49;19.90;99.90
21551;DHT22;10936;49.836;7.078;2022-09-27T15:54:23;19.90;99.90
21551;DHT22;10936;49.836;7.078;2022-09-27T15:56:51;19.80;99.90
21551;DHT22;10936;49.836;7.078;2022-09-27T15:59:19;19.90;99.90
21551;DHT22;10936;49.836;7.078;2022-09-27T16:01:46;19.80;99.90
21551;DHT22;10936;49.836;7.078;2022-09-27T16:04:12;19.80;99.90
21551;DHT22;10936;49.836;7.078;2022-09-27T16:06:38;19.80;99.90
21551;DHT22;10936;49.836;7.078;2022-09-27T16:09:12;19.80;99.90
21551;DHT22;10936;49.836;7.078;2022-09-27T16:11:39;19.80;99.90
21551;DHT22;10936;49.836;7.078;2022-09-27T16:14:05;19.80;99.90
21551;DHT22;10936;49.836;7.078;2022-09-27T16:16:30;19.80;99.90
21551;DHT22;10936;49.836;7.078;2022-09-27T16:18:56;19.80;99.90
21551;DHT22;10936;49.836;7.078;2022-09-27T16:21:22;19.80;99.90
21551;DHT22;10936;49.836;7.078;2022-09-27T16:23:47;19.80;99.90
21551;DHT22;10936;49.836;7.078;2022-09-27T16:26:13;19.70;99.90
21551;DHT22;10936;49.836;7.078;2022-09-27T16:28:38;19.80;99.90
21551;DHT22;10936;49.836;7.078;2022-09-27T16:31:05;19.80;99.90
21551;DHT22;10936;49.836;7.078;2022-09-27T16:33:32;19.80;99.90
21551;DHT22;10936;49.836;7.078;2022-09-27T16:36:05;19.80;99.90
21551;DHT22;10936;49.836;7.078;2022-09-27T16:38:31;19.80;99.90
21551;DHT22;10936;49.836;7.078;2022-09-27T16:41:03;19.80;99.90
21551;DHT22;10936;49.836;7.078;2022-09-27T16:43:29;19.80;99.90
21551;DHT22;10936;49.836;7.078;2022-09-27T16:46:03;19.80;99.90
21551;DHT22;10936;49.836;7.078;2022-09-27T16:48:30;19.70;99.90
21551;DHT22;10936;49.836;7.078;2022-09-27T16:51:02;19.70;99.90
21551;DHT22;10936;49.836;7.078;2022-09-27T16:53:46;19.70;99.90
21551;DHT22;10936;49.836;7.078;2022-09-27T16:56:12;19.70;99.90
21551;DHT22;10936;49.836;7.078;2022-09-27T16:58:38;19.70;99.90
21551;DHT22;10936;49.836;7.078;2022-09-27T17:01:04;19.70;99.90
21551;DHT22;10936;49.836;7.078;2022-09-27T17:03:29;19.70;99.90
21551;DHT22;10936;49.836;7.078;2022-09-27T17:06:00;19.70;99.90
21551;DHT22;10936;49.836;7.078;2022-09-27T17:08:27;19.60;99.90
21551;DHT22;10936;49.836;7.078;2022-09-27T17:10:52;19.70;99.90
21551;DHT22;10936;49.836;7.078;2022-09-27T17:13:18;19.60;99.90
21551;DHT22;10936;49.836;7.078;2022-09-27T17:15:43;19.70;99.90
21551;DHT22;10936;49.836;7.078;2022-09-27T17:18:09;19.70;99.90
21551;DHT22;10936;49.836;7.078;2022-09-27T17:20:36;19.60;99.90
21551;DHT22;10936;49.836;7.078;2022-09-27T17:23:01;19.60;99.90
21551;DHT22;10936;49.836;7.078;2022-09-27T17:25:27;19.60;99.90
21551;DHT22;10936;49.836;7.078;2022-09-27T17:27:53;19.60;99.90
21551;DHT22;10936;49.836;7.078;2022-09-27T17:30:19;19.60;99.90
21551;DHT22;10936;49.836;7.078;2022-09-27T17:32:45;19.60;99.90
21551;DHT22;10936;49.836;7.078;2022-09-27T17:35:11;19.60;99.90
21551;DHT22;10936;49.836;7.078;2022-09-27T17:37:36;19.60;99.90
21551;DHT22;10936;49.836;7.078;2022-09-27T17:40:03;19.60;99.90
21551;DHT22;10936;49.836;7.078;2022-09-27T17:42:29;19.60;99.90
21551;DHT22;10936;49.836;7.078;2022-09-27T17:44:55;19.60;99.90
21551;DHT22;10936;49.836;7.078;2022-09-27T17:47:20;19.60;99.90
21551;DHT22;10936;49.836;7.078;2022-09-27T17:50:05;19.60;99.90
21551;DHT22;10936;49.836;7.078;2022-09-27T17:52:52;19.50;99.90
21551;DHT22;10936;49.836;7.078;2022-09-27T17:55:19;19.50;99.90
21551;DHT22;10936;49.836;7.078;2022-09-27T17:57:46;19.60;99.90
21551;DHT22;10936;49.836;7.078;2022-09-27T18:00:16;19.50;99.90
21551;DHT22;10936;49.836;7.078;2022-09-27T18:02:42;19.60;99.90
21551;DHT22;10936;49.836;7.078;2022-09-27T18:05:09;19.50;99.90
21551;DHT22;10936;49.836;7.078;2022-09-27T18:07:35;19.50;99.90
21551;DHT22;10936;49.836;7.078;2022-09-27T18:10:02;19.50;99.90
21551;DHT22;10936;49.836;7.078;2022-09-27T18:12:28;19.50;99.90
21551;DHT22;10936;49.836;7.078;2022-09-27T18:15:05;19.50;99.90
21551;DHT22;10936;49.836;7.078;2022-09-27T18:17:32;19.50;99.90
21551;DHT22;10936;49.836;7.078;2022-09-27T18:19:58;19.50;99.90
21551;DHT22;10936;49.836;7.078;2022-09-27T18:22:28;19.50;99.90
21551;DHT22;10936;49.836;7.078;2022-09-27T18:24:55;19.50;99.90
21551;DHT22;10936;49.836;7.078;2022-09-27T18:27:21;19.40;99.90
21551;DHT22;10936;49.836;7.078;2022-09-27T18:29:47;19.50;99.90
21551;DHT22;10936;49.836;7.078;2022-09-27T18:32:12;19.50;99.90
21551;DHT22;10936;49.836;7.078;2022-09-27T18:34:38;19.50;99.90
21551;DHT22;10936;49.836;7.078;2022-09-27T18:37:04;19.40;99.90
21551;DHT22;10936;49.836;7.078;2022-09-27T18:39:30;19.40;99.90
21551;DHT22;10936;49.836;7.078;2022-09-27T18:41:56;19.50;99.90
21551;DHT22;10936;49.836;7.078;2022-09-27T18:44:21;19.40;99.90
21551;DHT22;10936;49.836;7.078;2022-09-27T18:46:47;19.40;99.90
21551;DHT22;10936;49.836;7.078;2022-09-27T18:49:13;19.50;99.90
21551;DHT22;10936;49.836;7.078;2022-09-27T18:51:41;19.50;99.90
21551;DHT22;10936;49.836;7.078;2022-09-27T18:54:19;19.40;99.90
21551;DHT22;10936;49.836;7.078;2022-09-27T18:56:46;19.40;99.90
21551;DHT22;10936;49.836;7.078;2022-09-27T18:59:13;19.40;99.90
21551;DHT22;10936;49.836;7.078;2022-09-27T19:01:40;19.40;99.90
21551;DHT22;10936;49.836;7.078;2022-09-27T19:04:10;19.40;99.90
21551;DHT22;10936;49.836;7.078;2022-09-27T19:06:37;19.40;99.90
21551;DHT22;10936;49.836;7.078;2022-09-27T19:09:04;19.40;99.90
21551;DHT22;10936;49.836;7.078;2022-09-27T19:11:30;19.40;99.90
21551;DHT22;10936;49.836;7.078;2022-09-27T19:13:56;19.40;99.90
21551;DHT22;10936;49.836;7.078;2022-09-27T19:16:24;19.40;99.90
21551;DHT22;10936;49.836;7.078;2022-09-27T19:18:50;19.40;99.90
21551;DHT22;10936;49.836;7.078;2022-09-27T19:21:21;19.40;99.90
21551;DHT22;10936;49.836;7.078;2022-09-27T19:23:47;19.40;99.90
21551;DHT22;10936;49.836;7.078;2022-09-27T19:26:19;19.40;99.90
21551;DHT22;10936;49.836;7.078;2022-09-27T19:28:46;19.40;99.90
21551;DHT22;10936;49.836;7.078;2022-09-27T19:31:15;19.40;99.90
21551;DHT22;10936;49.836;7.078;2022-09-27T19:33:42;19.40;99.90
21551;DHT22;10936;49.836;7.078;2022-09-27T19:36:10;19.40;99.90
21551;DHT22;10936;49.836;7.078;2022-09-27T19:38:37;19.30;99.90
21551;DHT22;10936;49.836;7.078;2022-09-27T19:41:05;19.40;99.90
21551;DHT22;10936;49.836;7.078;2022-09-27T19:43:30;19.40;99.90
21551;DHT22;10936;49.836;7.078;2022-09-27T19:46:14;19.40;99.90
21551;DHT22;10936;49.836;7.078;2022-09-27T19:48:40;19.30;99.90
21551;DHT22;10936;49.836;7.078;2022-09-27T19:51:07;19.30;99.90
21551;DHT22;10936;49.836;7.078;2022-09-27T19:53:34;19.30;99.90
21551;DHT22;10936;49.836;7.078;2022-09-27T19:56:04;19.30;99.90
21551;DHT22;10936;49.836;7.078;2022-09-27T19:58:32;19.30;99.90
21551;DHT22;10936;49.836;7.078;2022-09-27T20:01:03;19.40;99.90
21551;DHT22;10936;49.836;7.078;2022-09-27T20:03:31;19.40;99.90
21551;DHT22;10936;49.836;7.078;2022-09-27T20:05:58;19.30;99.90
21551;DHT22;10936;49.836;7.078;2022-09-27T20:08:26;19.30;99.90
21551;DHT22;10936;49.836;7.078;2022-09-27T20:11:04;19.30;99.90
21551;DHT22;10936;49.836;7.078;2022-09-27T20:13:31;19.30;99.90
21551;DHT22;10936;49.836;7.078;2022-09-27T20:18:27;19.30;99.90
21551;DHT22;10936;49.836;7.078;2022-09-27T20:20:52;19.30;99.90
21551;DHT22;10936;49.836;7.078;2022-09-27T20:23:18;19.30;99.90
21551;DHT22;10936;49.836;7.078;2022-09-27T20:25:47;19.30;99.90
21551;DHT22;10936;49.836;7.078;2022-09-27T20:28:13;19.40;99.90
21551;DHT22;10936;49.836;7.078;2022-09-27T20:30:38;19.30;99.90
21551;DHT22;10936;49.836;7.078;2022-09-27T20:33:04;19.30;99.90
21551;DHT22;10936;49.836;7.078;2022-09-27T20:35:52;19.30;99.90
21551;DHT22;10936;49.836;7.078;2022-09-27T20:38:18;19.30;99.90
21551;DHT22;10936;49.836;7.078;2022-09-27T20:40:52;19.30;99.90
21551;DHT22;10936;49.836;7.078;2022-09-27T20:43:18;19.30;99.90
21551;DHT22;10936;49.836;7.078;2022-09-27T20:45:43;19.30;99.90
21551;DHT22;10936;49.836;7.078;2022-09-27T20:48:09;19.30;99.90
21551;DHT22;10936;49.836;7.078;2022-09-27T20:50:35;19.30;99.90
21551;DHT22;10936;49.836;7.078;2022-09-27T20:53:00;19.30;99.90
21551;DHT22;10936;49.836;7.078;2022-09-27T20:55:26;19.30;99.90
21551;DHT22;10936;49.836;7.078;2022-09-27T20:57:51;19.30;99.90
21551;DHT22;10936;49.836;7.078;2022-09-27T21:00:17;19.20;99.90
21551;DHT22;10936;49.836;7.078;2022-09-27T21:02:43;19.20;99.90
21551;DHT22;10936;49.836;7.078;2022-09-27T21:05:08;19.30;99.90
21551;DHT22;10936;49.836;7.078;2022-09-27T21:07:34;19.30;99.90
21551;DHT22;10936;49.836;7.078;2022-09-27T21:10:00;19.30;99.90
21551;DHT22;10936;49.836;7.078;2022-09-27T21:12:27;19.20;99.90
21551;DHT22;10936;49.836;7.078;2022-09-27T21:14:54;19.30;99.90
21551;DHT22;10936;49.836;7.078;2022-09-27T21:17:19;19.30;99.90
21551;DHT22;10936;49.836;7.078;2022-09-27T21:19:45;19.30;99.90
21551;DHT22;10936;49.836;7.078;2022-09-27T21:22:11;19.30;99.90
21551;DHT22;10936;49.836;7.078;2022-09-27T21:24:37;19.30;99.90
21551;DHT22;10936;49.836;7.078;2022-09-27T21:27:02;19.20;99.90
21551;DHT22;10936;49.836;7.078;2022-09-27T21:29:28;19.20;99.90
